KMPV/MPV METAR and TAF weather

Enter ICAO airport designator
Station Type Date Time Source
KMPV METAR 2019/04/25 01:51 UTC NOAA

KMPV 250151Z AUTO 32004KT 10SM OVC017 05/02 A2990 RMK AO2 SLP135 T00500017


Station Type Date Time Source
KMPV Decoded METAR 2019/04/25 01:51 UTC NOAA

KNAPP STATE AIRPORT, VT, United States (KMPV) 44-12N 072-34W 343M
Apr 24, 2019 - 09:51 PM EDT / 2019.04.25 0151 UTC
Wind: from the NW (320 degrees) at 5 MPH (4 KT):0
Visibility: 10 mile(s):0
Sky conditions: overcast
Temperature: 41.0 F (5.0 C)
Dew Point: 35.1 F (1.7 C)
Relative Humidity: 79%
Pressure (altimeter): 29.9 in. Hg (1012 hPa)
ob: KMPV 250151Z AUTO 32004KT 10SM OVC017 05/02 A2990 RMK AO2 SLP135 T00500017
cycle: 2

Station Type Date Time Source
KMPV TAF 2019/04/24 21:48 UTC NOAA

TAF
AMD KMPV 242044Z 2421/2518 30011KT P6SM VCSH SCT025 BKN035
FM242300 30009KT P6SM BKN025
FM251300 33005KT P6SM BKN040
FM251500 VRB04KT P6SM SCT070

Example: see airport list